Terminal Aerodrome Forecast
Issued by NWS Lubbock, TX

Home | Current Version | Previous Version | Text Only | Print | Product List | Glossary On
Versions: 1 2 3 4 5 6 7 8 9 10 11 12
000
FTUS44 KLUB 281129
TAFLBB
TAF
KLBB 281129Z 2812/2912 22010KT P6SM SCT150 SCT250
     FM282100 18009KT P6SM BKN080 BKN250
     FM290600 31006KT P6SM BKN060 BKN250=

USA.gov is the U.S. government's official web portal to all federal, state and local government web resources and services.